sensor_id;sensor_type;location;lat;lon;timestamp;P1;durP1;ratioP1;P2;durP2;ratioP2
19940;SDS011;10132;50.864;5.176;2023-05-14T00:01:43;10.73;;;9.60;;
19940;SDS011;10132;50.864;5.176;2023-05-14T00:03:45;12.83;;;10.57;;
19940;SDS011;10132;50.864;5.176;2023-05-14T00:05:47;11.37;;;10.30;;
19940;SDS011;10132;50.864;5.176;2023-05-14T00:07:50;11.10;;;10.10;;
19940;SDS011;10132;50.864;5.176;2023-05-14T00:09:53;11.90;;;10.70;;
19940;SDS011;10132;50.864;5.176;2023-05-14T00:11:55;10.43;;;9.43;;
19940;SDS011;10132;50.864;5.176;2023-05-14T00:13:57;10.40;;;9.50;;
19940;SDS011;10132;50.864;5.176;2023-05-14T00:15:59;10.77;;;9.43;;
19940;SDS011;10132;50.864;5.176;2023-05-14T00:18:02;12.33;;;11.00;;
19940;SDS011;10132;50.864;5.176;2023-05-14T00:20:07;13.60;;;12.20;;
19940;SDS011;10132;50.864;5.176;2023-05-14T00:22:11;12.20;;;11.00;;
19940;SDS011;10132;50.864;5.176;2023-05-14T00:24:13;12.00;;;10.90;;
19940;SDS011;10132;50.864;5.176;2023-05-14T00:26:15;13.40;;;12.00;;
19940;SDS011;10132;50.864;5.176;2023-05-14T00:28:18;15.27;;;13.77;;
19940;SDS011;10132;50.864;5.176;2023-05-14T00:30:22;15.97;;;14.43;;
19940;SDS011;10132;50.864;5.176;2023-05-14T00:32:24;17.53;;;15.83;;
19940;SDS011;10132;50.864;5.176;2023-05-14T00:34:28;19.20;;;16.90;;
19940;SDS011;10132;50.864;5.176;2023-05-14T00:36:30;18.90;;;17.10;;
19940;SDS011;10132;50.864;5.176;2023-05-14T00:38:33;21.23;;;19.13;;
19940;SDS011;10132;50.864;5.176;2023-05-14T00:40:35;20.97;;;18.77;;
19940;SDS011;10132;50.864;5.176;2023-05-14T00:42:37;21.93;;;19.80;;
19940;SDS011;10132;50.864;5.176;2023-05-14T00:44:40;22.13;;;19.83;;
19940;SDS011;10132;50.864;5.176;2023-05-14T00:46:42;22.17;;;19.87;;
19940;SDS011;10132;50.864;5.176;2023-05-14T00:48:44;21.53;;;19.33;;
19940;SDS011;10132;50.864;5.176;2023-05-14T00:50:49;23.37;;;19.47;;
19940;SDS011;10132;50.864;5.176;2023-05-14T00:52:52;24.33;;;20.90;;
19940;SDS011;10132;50.864;5.176;2023-05-14T00:54:54;22.30;;;19.60;;
19940;SDS011;10132;50.864;5.176;2023-05-14T00:56:58;21.00;;;18.90;;
19940;SDS011;10132;50.864;5.176;2023-05-14T00:59:01;21.40;;;19.03;;
19940;SDS011;10132;50.864;5.176;2023-05-14T01:01:03;20.50;;;17.50;;
19940;SDS011;10132;50.864;5.176;2023-05-14T01:03:06;23.13;;;18.43;;
19940;SDS011;10132;50.864;5.176;2023-05-14T01:05:08;21.33;;;19.17;;
19940;SDS011;10132;50.864;5.176;2023-05-14T01:07:15;23.30;;;20.80;;
19940;SDS011;10132;50.864;5.176;2023-05-14T01:09:35;25.37;;;21.80;;
19940;SDS011;10132;50.864;5.176;2023-05-14T01:11:46;23.10;;;20.80;;
19940;SDS011;10132;50.864;5.176;2023-05-14T01:13:58;24.53;;;22.03;;
19940;SDS011;10132;50.864;5.176;2023-05-14T01:16:11;24.37;;;21.83;;
19940;SDS011;10132;50.864;5.176;2023-05-14T01:18:15;25.17;;;21.40;;
19940;SDS011;10132;50.864;5.176;2023-05-14T01:20:19;28.63;;;23.73;;
19940;SDS011;10132;50.864;5.176;2023-05-14T01:22:23;28.30;;;23.47;;
19940;SDS011;10132;50.864;5.176;2023-05-14T01:24:26;25.43;;;22.77;;
19940;SDS011;10132;50.864;5.176;2023-05-14T01:26:28;23.47;;;20.57;;
19940;SDS011;10132;50.864;5.176;2023-05-14T01:28:31;23.27;;;20.97;;
19940;SDS011;10132;50.864;5.176;2023-05-14T01:30:39;24.90;;;21.53;;
19940;SDS011;10132;50.864;5.176;2023-05-14T01:32:46;24.93;;;22.33;;
19940;SDS011;10132;50.864;5.176;2023-05-14T01:34:51;24.87;;;22.17;;
19940;SDS011;10132;50.864;5.176;2023-05-14T01:36:56;24.27;;;21.77;;
19940;SDS011;10132;50.864;5.176;2023-05-14T01:39:00;28.83;;;23.47;;
19940;SDS011;10132;50.864;5.176;2023-05-14T01:41:04;24.17;;;21.60;;
19940;SDS011;10132;50.864;5.176;2023-05-14T01:43:06;24.37;;;21.97;;
19940;SDS011;10132;50.864;5.176;2023-05-14T01:45:09;25.63;;;22.70;;
19940;SDS011;10132;50.864;5.176;2023-05-14T01:47:12;27.93;;;22.00;;
19940;SDS011;10132;50.864;5.176;2023-05-14T01:49:14;24.13;;;21.83;;
19940;SDS011;10132;50.864;5.176;2023-05-14T01:51:18;23.50;;;21.00;;
19940;SDS011;10132;50.864;5.176;2023-05-14T01:53:20;24.40;;;20.93;;
19940;SDS011;10132;50.864;5.176;2023-05-14T01:55:24;25.37;;;22.63;;
19940;SDS011;10132;50.864;5.176;2023-05-14T01:57:26;25.27;;;21.67;;
19940;SDS011;10132;50.864;5.176;2023-05-14T01:59:28;23.10;;;20.80;;
19940;SDS011;10132;50.864;5.176;2023-05-14T02:01:31;23.90;;;21.53;;
19940;SDS011;10132;50.864;5.176;2023-05-14T02:03:33;24.57;;;22.13;;
19940;SDS011;10132;50.864;5.176;2023-05-14T02:05:36;26.57;;;23.77;;
19940;SDS011;10132;50.864;5.176;2023-05-14T02:07:38;25.97;;;23.27;;
19940;SDS011;10132;50.864;5.176;2023-05-14T02:09:41;26.00;;;23.40;;
19940;SDS011;10132;50.864;5.176;2023-05-14T02:11:44;25.97;;;23.47;;
19940;SDS011;10132;50.864;5.176;2023-05-14T02:13:47;24.77;;;22.30;;
19940;SDS011;10132;50.864;5.176;2023-05-14T02:15:49;26.53;;;23.77;;
19940;SDS011;10132;50.864;5.176;2023-05-14T02:17:51;27.97;;;23.90;;
19940;SDS011;10132;50.864;5.176;2023-05-14T02:19:53;26.90;;;24.03;;
19940;SDS011;10132;50.864;5.176;2023-05-14T02:21:57;26.43;;;23.30;;
19940;SDS011;10132;50.864;5.176;2023-05-14T02:24:00;24.00;;;21.70;;
19940;SDS011;10132;50.864;5.176;2023-05-14T02:26:02;25.13;;;22.57;;
19940;SDS011;10132;50.864;5.176;2023-05-14T02:28:06;27.80;;;22.67;;
19940;SDS011;10132;50.864;5.176;2023-05-14T02:30:09;26.30;;;22.93;;
19940;SDS011;10132;50.864;5.176;2023-05-14T02:32:11;27.07;;;22.33;;
19940;SDS011;10132;50.864;5.176;2023-05-14T02:34:14;28.67;;;25.53;;
19940;SDS011;10132;50.864;5.176;2023-05-14T02:36:16;28.73;;;24.27;;
19940;SDS011;10132;50.864;5.176;2023-05-14T02:38:19;28.07;;;25.20;;
19940;SDS011;10132;50.864;5.176;2023-05-14T02:40:21;26.00;;;23.30;;
19940;SDS011;10132;50.864;5.176;2023-05-14T02:42:23;31.20;;;27.40;;
19940;SDS011;10132;50.864;5.176;2023-05-14T02:44:29;32.80;;;29.30;;
19940;SDS011;10132;50.864;5.176;2023-05-14T02:46:31;33.07;;;29.53;;
19940;SDS011;10132;50.864;5.176;2023-05-14T02:48:34;34.37;;;30.50;;
19940;SDS011;10132;50.864;5.176;2023-05-14T02:50:36;33.53;;;30.03;;
19940;SDS011;10132;50.864;5.176;2023-05-14T02:52:38;34.93;;;31.23;;
19940;SDS011;10132;50.864;5.176;2023-05-14T02:54:40;35.83;;;32.13;;
19940;SDS011;10132;50.864;5.176;2023-05-14T02:56:42;35.70;;;31.77;;
19940;SDS011;10132;50.864;5.176;2023-05-14T02:58:44;35.87;;;32.07;;
19940;SDS011;10132;50.864;5.176;2023-05-14T03:00:48;35.37;;;31.57;;
19940;SDS011;10132;50.864;5.176;2023-05-14T03:02:50;35.27;;;31.80;;
19940;SDS011;10132;50.864;5.176;2023-05-14T03:04:52;36.60;;;32.70;;
19940;SDS011;10132;50.864;5.176;2023-05-14T03:06:54;36.97;;;33.07;;
19940;SDS011;10132;50.864;5.176;2023-05-14T03:08:56;37.30;;;33.50;;
19940;SDS011;10132;50.864;5.176;2023-05-14T03:10:59;36.13;;;32.37;;
19940;SDS011;10132;50.864;5.176;2023-05-14T03:13:01;35.57;;;31.83;;
19940;SDS011;10132;50.864;5.176;2023-05-14T03:15:04;34.37;;;31.00;;
19940;SDS011;10132;50.864;5.176;2023-05-14T03:17:09;33.27;;;29.87;;
19940;SDS011;10132;50.864;5.176;2023-05-14T03:19:11;35.77;;;32.27;;
19940;SDS011;10132;50.864;5.176;2023-05-14T03:21:13;37.97;;;33.90;;
19940;SDS011;10132;50.864;5.176;2023-05-14T03:23:16;35.53;;;31.97;;
19940;SDS011;10132;50.864;5.176;2023-05-14T03:25:18;36.83;;;33.13;;
19940;SDS011;10132;50.864;5.176;2023-05-14T03:27:20;38.67;;;34.50;;
19940;SDS011;10132;50.864;5.176;2023-05-14T03:29:23;36.37;;;32.57;;
19940;SDS011;10132;50.864;5.176;2023-05-14T03:31:25;36.20;;;32.53;;
19940;SDS011;10132;50.864;5.176;2023-05-14T03:33:29;36.23;;;32.47;;
19940;SDS011;10132;50.864;5.176;2023-05-14T03:35:31;33.90;;;30.37;;
19940;SDS011;10132;50.864;5.176;2023-05-14T03:37:34;33.63;;;30.13;;
19940;SDS011;10132;50.864;5.176;2023-05-14T03:39:36;32.40;;;29.10;;
19940;SDS011;10132;50.864;5.176;2023-05-14T03:41:38;33.27;;;29.87;;
19940;SDS011;10132;50.864;5.176;2023-05-14T03:43:42;31.77;;;28.57;;
19940;SDS011;10132;50.864;5.176;2023-05-14T03:45:44;32.83;;;29.33;;
19940;SDS011;10132;50.864;5.176;2023-05-14T03:47:51;28.30;;;25.70;;
19940;SDS011;10132;50.864;5.176;2023-05-14T03:49:55;30.67;;;27.57;;
19940;SDS011;10132;50.864;5.176;2023-05-14T03:51:58;32.17;;;28.77;;
19940;SDS011;10132;50.864;5.176;2023-05-14T03:54:02;32.80;;;28.83;;
19940;SDS011;10132;50.864;5.176;2023-05-14T03:56:05;33.83;;;30.23;;
19940;SDS011;10132;50.864;5.176;2023-05-14T03:58:07;32.67;;;29.27;;
19940;SDS011;10132;50.864;5.176;2023-05-14T04:00:13;31.60;;;28.40;;
19940;SDS011;10132;50.864;5.176;2023-05-14T04:02:16;29.63;;;26.83;;
19940;SDS011;10132;50.864;5.176;2023-05-14T04:04:18;31.50;;;28.27;;
19940;SDS011;10132;50.864;5.176;2023-05-14T04:06:21;34.57;;;30.83;;
19940;SDS011;10132;50.864;5.176;2023-05-14T04:08:24;33.80;;;30.20;;
19940;SDS011;10132;50.864;5.176;2023-05-14T04:10:26;36.50;;;32.70;;
19940;SDS011;10132;50.864;5.176;2023-05-14T04:12:29;40.33;;;36.10;;
19940;SDS011;10132;50.864;5.176;2023-05-14T04:14:32;40.93;;;36.47;;
19940;SDS011;10132;50.864;5.176;2023-05-14T04:16:34;41.07;;;36.70;;
19940;SDS011;10132;50.864;5.176;2023-05-14T04:18:36;48.77;;;39.83;;
19940;SDS011;10132;50.864;5.176;2023-05-14T04:20:38;41.50;;;37.17;;
19940;SDS011;10132;50.864;5.176;2023-05-14T04:22:42;50.53;;;43.30;;
19940;SDS011;10132;50.864;5.176;2023-05-14T04:24:44;51.57;;;44.23;;
19940;SDS011;10132;50.864;5.176;2023-05-14T04:26:47;95.00;;;48.87;;
19940;SDS011;10132;50.864;5.176;2023-05-14T04:28:49;63.40;;;50.00;;
19940;SDS011;10132;50.864;5.176;2023-05-14T04:30:52;63.80;;;52.63;;
19940;SDS011;10132;50.864;5.176;2023-05-14T04:32:54;69.30;;;53.97;;
19940;SDS011;10132;50.864;5.176;2023-05-14T04:34:56;77.53;;;56.67;;
19940;SDS011;10132;50.864;5.176;2023-05-14T04:36:59;133.13;;;56.50;;
19940;SDS011;10132;50.864;5.176;2023-05-14T04:39:04;81.10;;;55.63;;
19940;SDS011;10132;50.864;5.176;2023-05-14T04:41:09;190.23;;;59.03;;
19940;SDS011;10132;50.864;5.176;2023-05-14T04:43:11;111.07;;;58.57;;
19940;SDS011;10132;50.864;5.176;2023-05-14T04:45:13;134.70;;;62.40;;
19940;SDS011;10132;50.864;5.176;2023-05-14T04:47:21;102.43;;;63.17;;
19940;SDS011;10132;50.864;5.176;2023-05-14T04:49:23;105.20;;;64.33;;
19940;SDS011;10132;50.864;5.176;2023-05-14T04:51:26;98.60;;;66.87;;
19940;SDS011;10132;50.864;5.176;2023-05-14T04:53:28;88.07;;;67.90;;
19940;SDS011;10132;50.864;5.176;2023-05-14T04:55:31;88.17;;;67.87;;
19940;SDS011;10132;50.864;5.176;2023-05-14T04:57:34;92.87;;;69.33;;
19940;SDS011;10132;50.864;5.176;2023-05-14T04:59:36;179.00;;;128.27;;
19940;SDS011;10132;50.864;5.176;2023-05-14T05:01:41;94.00;;;69.53;;
19940;SDS011;10132;50.864;5.176;2023-05-14T05:03:43;90.33;;;69.20;;
19940;SDS011;10132;50.864;5.176;2023-05-14T05:05:45;92.40;;;68.00;;
19940;SDS011;10132;50.864;5.176;2023-05-14T05:07:47;94.80;;;69.67;;
19940;SDS011;10132;50.864;5.176;2023-05-14T05:09:51;84.33;;;66.30;;
19940;SDS011;10132;50.864;5.176;2023-05-14T05:11:55;85.70;;;66.20;;
19940;SDS011;10132;50.864;5.176;2023-05-14T05:13:57;84.83;;;64.53;;
19940;SDS011;10132;50.864;5.176;2023-05-14T05:15:59;83.03;;;66.63;;
19940;SDS011;10132;50.864;5.176;2023-05-14T05:18:01;81.60;;;64.40;;
19940;SDS011;10132;50.864;5.176;2023-05-14T05:20:05;82.03;;;64.70;;
19940;SDS011;10132;50.864;5.176;2023-05-14T05:22:09;85.20;;;63.20;;
19940;SDS011;10132;50.864;5.176;2023-05-14T05:24:11;81.77;;;62.40;;
19940;SDS011;10132;50.864;5.176;2023-05-14T05:26:14;82.77;;;63.27;;
19940;SDS011;10132;50.864;5.176;2023-05-14T05:28:17;80.90;;;60.73;;
19940;SDS011;10132;50.864;5.176;2023-05-14T05:30:20;80.60;;;63.20;;
19940;SDS011;10132;50.864;5.176;2023-05-14T05:32:22;86.23;;;65.27;;
19940;SDS011;10132;50.864;5.176;2023-05-14T05:34:24;79.07;;;62.33;;
19940;SDS011;10132;50.864;5.176;2023-05-14T05:36:27;85.57;;;62.97;;
19940;SDS011;10132;50.864;5.176;2023-05-14T05:38:29;77.97;;;61.70;;
19940;SDS011;10132;50.864;5.176;2023-05-14T05:40:31;80.90;;;61.93;;
19940;SDS011;10132;50.864;5.176;2023-05-14T05:42:34;75.83;;;59.17;;
19940;SDS011;10132;50.864;5.176;2023-05-14T05:44:37;75.00;;;60.27;;
19940;SDS011;10132;50.864;5.176;2023-05-14T05:46:40;75.23;;;59.97;;
19940;SDS011;10132;50.864;5.176;2023-05-14T05:48:43;74.40;;;61.27;;
19940;SDS011;10132;50.864;5.176;2023-05-14T05:50:46;74.47;;;59.57;;
19940;SDS011;10132;50.864;5.176;2023-05-14T05:52:50;73.60;;;59.57;;
19940;SDS011;10132;50.864;5.176;2023-05-14T05:54:53;73.70;;;58.57;;
19940;SDS011;10132;50.864;5.176;2023-05-14T05:56:55;74.80;;;58.77;;
19940;SDS011;10132;50.864;5.176;2023-05-14T05:58:57;67.10;;;56.77;;
19940;SDS011;10132;50.864;5.176;2023-05-14T06:01:01;70.10;;;57.97;;
19940;SDS011;10132;50.864;5.176;2023-05-14T06:03:03;73.07;;;55.80;;
19940;SDS011;10132;50.864;5.176;2023-05-14T06:05:06;68.20;;;56.20;;
19940;SDS011;10132;50.864;5.176;2023-05-14T06:07:09;70.93;;;56.13;;
19940;SDS011;10132;50.864;5.176;2023-05-14T06:09:12;70.47;;;55.30;;
19940;SDS011;10132;50.864;5.176;2023-05-14T06:11:14;70.63;;;57.40;;
19940;SDS011;10132;50.864;5.176;2023-05-14T06:13:16;75.20;;;56.87;;
19940;SDS011;10132;50.864;5.176;2023-05-14T06:15:19;65.57;;;56.17;;
19940;SDS011;10132;50.864;5.176;2023-05-14T06:17:23;73.33;;;56.30;;
19940;SDS011;10132;50.864;5.176;2023-05-14T06:19:25;64.63;;;54.93;;
19940;SDS011;10132;50.864;5.176;2023-05-14T06:21:28;64.93;;;55.43;;
19940;SDS011;10132;50.864;5.176;2023-05-14T06:23:30;61.17;;;53.43;;
19940;SDS011;10132;50.864;5.176;2023-05-14T06:25:34;66.90;;;55.20;;
19940;SDS011;10132;50.864;5.176;2023-05-14T06:27:36;60.80;;;51.83;;
19940;SDS011;10132;50.864;5.176;2023-05-14T06:29:38;65.70;;;52.80;;
19940;SDS011;10132;50.864;5.176;2023-05-14T06:31:40;56.20;;;49.87;;
19940;SDS011;10132;50.864;5.176;2023-05-14T06:33:44;56.87;;;50.07;;
19940;SDS011;10132;50.864;5.176;2023-05-14T06:35:46;54.67;;;47.73;;
19940;SDS011;10132;50.864;5.176;2023-05-14T06:37:48;53.30;;;47.40;;
19940;SDS011;10132;50.864;5.176;2023-05-14T06:39:50;51.73;;;46.10;;
19940;SDS011;10132;50.864;5.176;2023-05-14T06:41:52;52.67;;;47.00;;
19940;SDS011;10132;50.864;5.176;2023-05-14T06:43:55;51.87;;;46.10;;
19940;SDS011;10132;50.864;5.176;2023-05-14T06:45:57;50.37;;;44.93;;
19940;SDS011;10132;50.864;5.176;2023-05-14T06:48:00;51.90;;;46.13;;
19940;SDS011;10132;50.864;5.176;2023-05-14T06:50:04;46.77;;;41.67;;
19940;SDS011;10132;50.864;5.176;2023-05-14T06:52:07;49.10;;;43.90;;
19940;SDS011;10132;50.864;5.176;2023-05-14T06:54:09;48.97;;;43.87;;
19940;SDS011;10132;50.864;5.176;2023-05-14T06:56:12;45.47;;;40.53;;
19940;SDS011;10132;50.864;5.176;2023-05-14T06:58:14;46.07;;;41.23;;
19940;SDS011;10132;50.864;5.176;2023-05-14T07:00:17;47.40;;;41.70;;
19940;SDS011;10132;50.864;5.176;2023-05-14T07:02:21;46.97;;;41.97;;
19940;SDS011;10132;50.864;5.176;2023-05-14T07:04:23;44.57;;;39.83;;
19940;SDS011;10132;50.864;5.176;2023-05-14T07:06:27;45.87;;;40.27;;
19940;SDS011;10132;50.864;5.176;2023-05-14T07:08:29;44.63;;;39.67;;
19940;SDS011;10132;50.864;5.176;2023-05-14T07:10:32;44.40;;;39.73;;
19940;SDS011;10132;50.864;5.176;2023-05-14T07:12:35;42.57;;;38.07;;
19940;SDS011;10132;50.864;5.176;2023-05-14T07:14:37;43.10;;;38.50;;
19940;SDS011;10132;50.864;5.176;2023-05-14T07:16:39;44.27;;;39.30;;
19940;SDS011;10132;50.864;5.176;2023-05-14T07:18:42;43.20;;;38.60;;
19940;SDS011;10132;50.864;5.176;2023-05-14T07:20:44;42.87;;;38.50;;
19940;SDS011;10132;50.864;5.176;2023-05-14T07:22:48;41.97;;;37.40;;
19940;SDS011;10132;50.864;5.176;2023-05-14T07:24:50;41.80;;;37.47;;
19940;SDS011;10132;50.864;5.176;2023-05-14T07:26:52;41.13;;;36.83;;
19940;SDS011;10132;50.864;5.176;2023-05-14T07:28:56;38.93;;;34.70;;
19940;SDS011;10132;50.864;5.176;2023-05-14T07:30:58;38.83;;;34.57;;
19940;SDS011;10132;50.864;5.176;2023-05-14T07:33:00;41.20;;;36.77;;
19940;SDS011;10132;50.864;5.176;2023-05-14T07:35:03;37.63;;;33.80;;
19940;SDS011;10132;50.864;5.176;2023-05-14T07:37:06;38.07;;;33.97;;
19940;SDS011;10132;50.864;5.176;2023-05-14T07:39:09;39.37;;;35.37;;
19940;SDS011;10132;50.864;5.176;2023-05-14T07:41:13;39.67;;;35.47;;
19940;SDS011;10132;50.864;5.176;2023-05-14T07:43:15;46.50;;;35.17;;
19940;SDS011;10132;50.864;5.176;2023-05-14T07:45:17;39.77;;;35.47;;
19940;SDS011;10132;50.864;5.176;2023-05-14T07:47:19;41.30;;;34.87;;
19940;SDS011;10132;50.864;5.176;2023-05-14T07:49:22;39.93;;;35.70;;
19940;SDS011;10132;50.864;5.176;2023-05-14T07:51:26;38.67;;;34.67;;
19940;SDS011;10132;50.864;5.176;2023-05-14T07:53:28;39.37;;;35.23;;
19940;SDS011;10132;50.864;5.176;2023-05-14T07:55:31;39.87;;;35.63;;
19940;SDS011;10132;50.864;5.176;2023-05-14T07:57:49;40.17;;;35.97;;
19940;SDS011;10132;50.864;5.176;2023-05-14T07:59:51;38.93;;;34.73;;
19940;SDS011;10132;50.864;5.176;2023-05-14T08:01:54;41.97;;;37.50;;
19940;SDS011;10132;50.864;5.176;2023-05-14T08:03:56;43.07;;;37.73;;
19940;SDS011;10132;50.864;5.176;2023-05-14T08:05:58;42.63;;;38.07;;
19940;SDS011;10132;50.864;5.176;2023-05-14T08:08:01;42.10;;;37.53;;
19940;SDS011;10132;50.864;5.176;2023-05-14T08:10:04;44.27;;;39.57;;
19940;SDS011;10132;50.864;5.176;2023-05-14T08:12:09;41.63;;;37.17;;
19940;SDS011;10132;50.864;5.176;2023-05-14T08:14:11;42.33;;;36.57;;
19940;SDS011;10132;50.864;5.176;2023-05-14T08:16:13;42.87;;;38.17;;
19940;SDS011;10132;50.864;5.176;2023-05-14T08:18:15;46.40;;;40.10;;
19940;SDS011;10132;50.864;5.176;2023-05-14T08:20:17;48.07;;;41.87;;
19940;SDS011;10132;50.864;5.176;2023-05-14T08:22:20;50.03;;;40.87;;
19940;SDS011;10132;50.864;5.176;2023-05-14T08:24:22;45.57;;;39.90;;
19940;SDS011;10132;50.864;5.176;2023-05-14T08:26:24;48.97;;;38.83;;
19940;SDS011;10132;50.864;5.176;2023-05-14T08:28:29;41.15;;;36.33;;
19940;SDS011;10132;50.864;5.176;2023-05-14T08:30:31;38.53;;;34.37;;
19940;SDS011;10132;50.864;5.176;2023-05-14T08:32:33;43.10;;;34.97;;
19940;SDS011;10132;50.864;5.176;2023-05-14T08:34:37;41.00;;;34.70;;
19940;SDS011;10132;50.864;5.176;2023-05-14T08:36:39;37.63;;;33.70;;
19940;SDS011;10132;50.864;5.176;2023-05-14T08:38:42;38.97;;;34.17;;
19940;SDS011;10132;50.864;5.176;2023-05-14T08:40:46;37.87;;;33.93;;
19940;SDS011;10132;50.864;5.176;2023-05-14T08:42:49;39.38;;;33.65;;
19940;SDS011;10132;50.864;5.176;2023-05-14T08:44:56;35.30;;;31.60;;
19940;SDS011;10132;50.864;5.176;2023-05-14T08:47:01;37.17;;;33.05;;
19940;SDS011;10132;50.864;5.176;2023-05-14T08:49:09;33.83;;;30.35;;
19940;SDS011;10132;50.864;5.176;2023-05-14T08:51:18;36.15;;;32.45;;
19940;SDS011;10132;50.864;5.176;2023-05-14T08:53:20;35.88;;;32.08;;
19940;SDS011;10132;50.864;5.176;2023-05-14T08:55:23;37.65;;;32.03;;
19940;SDS011;10132;50.864;5.176;2023-05-14T08:57:26;36.90;;;30.85;;
19940;SDS011;10132;50.864;5.176;2023-05-14T08:59:30;36.00;;;32.00;;
19940;SDS011;10132;50.864;5.176;2023-05-14T09:01:35;36.00;;;31.30;;
19940;SDS011;10132;50.864;5.176;2023-05-14T09:03:38;35.50;;;31.73;;
19940;SDS011;10132;50.864;5.176;2023-05-14T09:05:41;34.58;;;30.30;;
19940;SDS011;10132;50.864;5.176;2023-05-14T09:07:43;26.92;;;24.13;;
19940;SDS011;10132;50.864;5.176;2023-05-14T09:09:46;27.73;;;24.83;;
19940;SDS011;10132;50.864;5.176;2023-05-14T09:11:49;27.88;;;24.88;;
19940;SDS011;10132;50.864;5.176;2023-05-14T09:13:52;26.63;;;23.65;;
19940;SDS011;10132;50.864;5.176;2023-05-14T09:15:54;26.85;;;24.08;;
19940;SDS011;10132;50.864;5.176;2023-05-14T09:17:58;27.52;;;24.73;;
19940;SDS011;10132;50.864;5.176;2023-05-14T09:20:01;27.63;;;24.35;;
19940;SDS011;10132;50.864;5.176;2023-05-14T09:22:05;29.48;;;26.40;;
19940;SDS011;10132;50.864;5.176;2023-05-14T09:24:09;28.92;;;25.63;;
19940;SDS011;10132;50.864;5.176;2023-05-14T09:26:21;27.73;;;24.70;;
19940;SDS011;10132;50.864;5.176;2023-05-14T09:28:25;28.02;;;25.10;;
19940;SDS011;10132;50.864;5.176;2023-05-14T09:30:27;29.45;;;24.80;;
19940;SDS011;10132;50.864;5.176;2023-05-14T09:32:34;32.10;;;27.50;;
19940;SDS011;10132;50.864;5.176;2023-05-14T09:34:38;30.30;;;27.13;;
19940;SDS011;10132;50.864;5.176;2023-05-14T09:36:41;32.50;;;27.95;;
19940;SDS011;10132;50.864;5.176;2023-05-14T09:38:43;33.58;;;28.70;;
19940;SDS011;10132;50.864;5.176;2023-05-14T09:40:46;35.30;;;28.23;;
19940;SDS011;10132;50.864;5.176;2023-05-14T09:42:48;34.72;;;27.70;;
19940;SDS011;10132;50.864;5.176;2023-05-14T09:44:52;31.45;;;27.65;;
19940;SDS011;10132;50.864;5.176;2023-05-14T09:46:54;34.20;;;28.58;;
19940;SDS011;10132;50.864;5.176;2023-05-14T09:48:56;32.15;;;27.02;;
19940;SDS011;10132;50.864;5.176;2023-05-14T09:51:00;34.30;;;27.23;;
19940;SDS011;10132;50.864;5.176;2023-05-14T09:53:04;28.83;;;25.88;;
19940;SDS011;10132;50.864;5.176;2023-05-14T09:55:07;33.38;;;27.40;;
19940;SDS011;10132;50.864;5.176;2023-05-14T09:57:10;28.50;;;25.50;;
19940;SDS011;10132;50.864;5.176;2023-05-14T09:59:12;31.00;;;26.08;;
19940;SDS011;10132;50.864;5.176;2023-05-14T10:01:15;28.60;;;25.60;;
19940;SDS011;10132;50.864;5.176;2023-05-14T10:03:19;30.23;;;25.90;;
19940;SDS011;10132;50.864;5.176;2023-05-14T10:05:25;33.25;;;26.30;;
19940;SDS011;10132;50.864;5.176;2023-05-14T10:07:30;29.58;;;25.67;;
19940;SDS011;10132;50.864;5.176;2023-05-14T10:09:36;28.67;;;24.98;;
19940;SDS011;10132;50.864;5.176;2023-05-14T10:11:41;26.50;;;23.85;;
19940;SDS011;10132;50.864;5.176;2023-05-14T10:13:48;27.77;;;22.95;;
19940;SDS011;10132;50.864;5.176;2023-05-14T10:16:00;26.35;;;23.40;;
19940;SDS011;10132;50.864;5.176;2023-05-14T10:18:09;26.50;;;23.70;;
19940;SDS011;10132;50.864;5.176;2023-05-14T10:20:14;27.63;;;23.88;;
19940;SDS011;10132;50.864;5.176;2023-05-14T10:22:18;31.13;;;27.00;;
19940;SDS011;10132;50.864;5.176;2023-05-14T10:24:28;29.83;;;26.15;;
19940;SDS011;10132;50.864;5.176;2023-05-14T10:26:30;23.98;;;21.42;;
19940;SDS011;10132;50.864;5.176;2023-05-14T10:28:32;23.95;;;21.58;;
19940;SDS011;10132;50.864;5.176;2023-05-14T10:30:35;22.50;;;20.30;;
19940;SDS011;10132;50.864;5.176;2023-05-14T10:32:44;21.55;;;19.42;;
19940;SDS011;10132;50.864;5.176;2023-05-14T10:34:46;22.30;;;19.85;;
19940;SDS011;10132;50.864;5.176;2023-05-14T10:36:49;23.23;;;20.83;;
19940;SDS011;10132;50.864;5.176;2023-05-14T10:38:54;23.45;;;20.90;;
19940;SDS011;10132;50.864;5.176;2023-05-14T10:40:59;21.95;;;19.27;;
19940;SDS011;10132;50.864;5.176;2023-05-14T10:43:02;22.48;;;20.10;;
19940;SDS011;10132;50.864;5.176;2023-05-14T10:45:12;22.52;;;20.35;;
19940;SDS011;10132;50.864;5.176;2023-05-14T10:47:15;24.63;;;22.27;;
19940;SDS011;10132;50.864;5.176;2023-05-14T10:49:23;24.55;;;22.02;;
19940;SDS011;10132;50.864;5.176;2023-05-14T10:51:28;24.35;;;21.08;;
19940;SDS011;10132;50.864;5.176;2023-05-14T10:53:33;28.50;;;22.27;;
19940;SDS011;10132;50.864;5.176;2023-05-14T10:55:36;23.35;;;20.95;;
19940;SDS011;10132;50.864;5.176;2023-05-14T10:57:41;24.40;;;20.75;;
19940;SDS011;10132;50.864;5.176;2023-05-14T10:59:45;24.30;;;21.70;;
19940;SDS011;10132;50.864;5.176;2023-05-14T11:01:48;23.08;;;20.67;;
19940;SDS011;10132;50.864;5.176;2023-05-14T11:03:50;22.63;;;20.33;;
19940;SDS011;10132;50.864;5.176;2023-05-14T11:05:55;23.05;;;20.60;;
19940;SDS011;10132;50.864;5.176;2023-05-14T11:07:58;22.88;;;20.65;;
19940;SDS011;10132;50.864;5.176;2023-05-14T11:10:03;22.05;;;19.85;;
19940;SDS011;10132;50.864;5.176;2023-05-14T11:12:09;21.98;;;19.40;;
19940;SDS011;10132;50.864;5.176;2023-05-14T11:14:16;24.45;;;21.48;;
19940;SDS011;10132;50.864;5.176;2023-05-14T11:16:19;22.55;;;20.42;;
19940;SDS011;10132;50.864;5.176;2023-05-14T11:18:26;21.40;;;19.27;;
19940;SDS011;10132;50.864;5.176;2023-05-14T11:20:28;25.33;;;20.95;;
19940;SDS011;10132;50.864;5.176;2023-05-14T11:22:32;21.27;;;19.10;;
19940;SDS011;10132;50.864;5.176;2023-05-14T11:24:34;22.35;;;20.15;;
19940;SDS011;10132;50.864;5.176;2023-05-14T11:26:36;21.10;;;19.05;;
19940;SDS011;10132;50.864;5.176;2023-05-14T11:28:39;21.20;;;19.00;;
19940;SDS011;10132;50.864;5.176;2023-05-14T11:30:42;22.20;;;19.65;;
19940;SDS011;10132;50.864;5.176;2023-05-14T11:32:46;22.25;;;19.95;;
19940;SDS011;10132;50.864;5.176;2023-05-14T11:34:48;22.00;;;19.75;;
19940;SDS011;10132;50.864;5.176;2023-05-14T11:36:51;21.75;;;19.55;;
19940;SDS011;10132;50.864;5.176;2023-05-14T11:38:53;22.92;;;20.13;;
19940;SDS011;10132;50.864;5.176;2023-05-14T11:40:57;22.98;;;20.63;;
19940;SDS011;10132;50.864;5.176;2023-05-14T11:43:04;23.83;;;19.60;;
19940;SDS011;10132;50.864;5.176;2023-05-14T11:45:06;22.77;;;20.50;;
19940;SDS011;10132;50.864;5.176;2023-05-14T11:47:17;22.10;;;19.80;;
19940;SDS011;10132;50.864;5.176;2023-05-14T11:49:21;23.15;;;20.75;;
19940;SDS011;10132;50.864;5.176;2023-05-14T11:51:23;22.25;;;20.15;;
19940;SDS011;10132;50.864;5.176;2023-05-14T11:53:28;20.58;;;18.42;;
19940;SDS011;10132;50.864;5.176;2023-05-14T11:55:32;21.27;;;18.48;;
19940;SDS011;10132;50.864;5.176;2023-05-14T11:57:35;21.25;;;19.00;;
19940;SDS011;10132;50.864;5.176;2023-05-14T11:59:37;21.48;;;19.33;;
19940;SDS011;10132;50.864;5.176;2023-05-14T12:01:43;21.88;;;19.67;;